Flight Track Log - Related Links

Times and Time Zones

All times are in EDT time to prevent confusion due to time zone crossing. See the AFL150 flight status page for this flight to view local times or setup timezone preferences in your user account.

Time Position Orientation Groundspeed Altitude Reporting Facility
EDT Latitude Longitude Course Direction KTS MPH feet Rate Location/Type
Sun 06:26:00 AM 56.1577 36.8761 307° West  Level Estimated
Sun 06:27:00 AM 56.2307 36.6975 306° West  Level Estimated
Sun 06:28:00 AM 56.3035 36.5182 306° West  Level Estimated
Sun 06:29:00 AM 56.3760 36.3382 306° West  Level Estimated
Sun 06:30:00 AM 56.4482 36.1575 306° West  Level Estimated
Sun 06:31:00 AM 56.5202 35.9761 306° West  Level Estimated
Sun 06:32:00 AM 56.5919 35.7940 306° West  Level Estimated
Sun 06:33:00 AM 56.6634 35.6113 305° West  Level Estimated
Sun 06:34:00 AM 56.7346 35.4278 305° West  Level Estimated
Sun 06:35:00 AM 56.8055 35.2436 305° West  Level Estimated
Sun 06:36:00 AM 56.8761 35.0588 305° West  Level Estimated
Sun 06:37:00 AM 56.9465 34.8733 305° West  Level Estimated
Sun 06:38:00 AM 57.0166 34.6870 305° West  Level Estimated
Sun 06:39:00 AM 57.0864 34.5001 305° West  Level Estimated
Sun 06:40:00 AM 57.1559 34.3124 304° West  Level Estimated
Sun 06:41:00 AM 57.2252 34.1241 304° West  Level Estimated
Sun 06:42:00 AM 57.2941 33.9350 304° West  Level Estimated
Sun 06:43:00 AM 57.3628 33.7452 304° West  Level Estimated
Sun 06:44:00 AM 57.4312 33.5548 304° West  Level Estimated
Sun 06:45:00 AM 57.4993 33.3636 304° West  Level Estimated
Sun 06:46:00 AM 57.5671 33.1717 303° West  Level Estimated
Sun 06:47:00 AM 57.6347 32.9790 303° West  Level Estimated
Sun 06:48:00 AM 57.7019 32.7857 303° West  Level Estimated
Sun 06:49:00 AM 57.7688 32.5916 303° West  Level Estimated
Sun 06:50:00 AM 57.8355 32.3969 303° West  Level Estimated
Sun 06:51:00 AM 57.9018 32.2014 303° West  Level Estimated
Sun 06:52:00 AM 57.9678 32.0052 302° West  Level Estimated
Sun 06:53:00 AM 58.0336 31.8082 302° West  Level Estimated
Sun 06:54:00 AM 58.0990 31.6106 302° West  Level Estimated
Sun 06:55:00 AM 58.1641 31.4122 302° West  Level Estimated
Sun 06:56:00 AM 58.2289 31.2131 302° West  Level Estimated
Sun 06:57:00 AM 58.2934 31.0132 302° West  Level Estimated
Sun 06:58:00 AM 58.3576 30.8127 301° West  Level Estimated
Sun 06:59:00 AM 58.4215 30.6114 301° West  Level Estimated
Sun 07:00:00 AM 58.4851 30.4093 301° West  Level Estimated
Sun 07:01:00 AM 58.5483 30.2066 301° West  Level Estimated
Sun 07:02:00 AM 58.6112 30.0031 301° West  Level Estimated
Sun 07:03:00 AM 58.6738 29.7989 301° West  Level Estimated
Sun 07:04:00 AM 58.7361 29.5939 300° West  Level Estimated
Sun 07:05:00 AM 58.7980 29.3883 300° West  Level Estimated
Sun 07:06:00 AM 58.8596 29.1818 300° West  Level Estimated
Sun 07:07:00 AM 58.9209 28.9747 300° West  Level Estimated
Sun 07:08:00 AM 58.9819 28.7668 300° West  Level Estimated
Sun 07:09:00 AM 59.0425 28.5582 300° West  Level Estimated
Sun 07:10:00 AM 59.1028 28.3488 299° West  Level Estimated
Sun 07:11:00 AM 59.1628 28.1387 299° West  Level Estimated
Sun 07:12:00 AM 59.2224 27.9279 299° West  Level Estimated
Sun 07:13:00 AM 59.2816 27.7164 299° West  Level Estimated
Sun 07:14:00 AM 59.3405 27.5040 299° West  Level Estimated
Sun 07:15:00 AM 59.3991 27.2910 298° West  Level Estimated
Sun 07:16:00 AM 59.4573 27.0772 298° West  Level Estimated
Sun 07:17:00 AM 59.5152 26.8627 298° West  Level Estimated
Sun 07:18:00 AM 59.5727 26.6475 298° West  Level Estimated
Sun 07:19:00 AM 59.6299 26.4315 298° West  Level Estimated
Sun 07:20:00 AM 59.6867 26.2148 298° West  Level Estimated
Sun 07:21:00 AM 59.7432 25.9974 297° West  Level Estimated
Sun 07:22:00 AM 59.7993 25.7792 297° West  Level Estimated
Sun 07:22:42 AM 59.8312 27.2239 285° West 444 511 34,000  Level FlightAware ADS-B
Sun 07:26:07 AM 59.9370 26.4183 286° West 444 511 34,000  Level FlightAware ADS-B
Sun 07:27:38 AM 60.0179 26.0851 304° West 445 512 34,000  Level FlightAware ADS-B
Sun 07:28:08 AM 60.0484 25.9922 301° West 445 512 34,000  Level FlightAware ADS-B
Sun 07:28:56 AM 60.0991 25.8201 301° West 445 512 34,000  Level FlightAware ADS-B
Sun 07:29:38 AM 60.1456 25.6648 301° West 444 511 34,000  Level FlightAware ADS-B
Sun 07:30:19 AM 60.1887 25.5211 301° West 442 509 34,000  Level FlightAware ADS-B
Sun 07:30:49 AM 60.2204 25.4148 301° West 442 509 34,000  Level FlightAware ADS-B
Sun 07:31:19 AM 60.2512 25.3115 301° West 441 507 34,000  Level FlightAware ADS-B
Sun 07:31:59 AM 60.2925 25.1720 301° West 441 507 34,000  Level FlightAware ADS-B
Sun 07:32:39 AM 60.3348 25.0283 301° West 442 509 34,000  Level FlightAware ADS-B
Sun 07:33:09 AM 60.3659 24.9219 301° West 441 507 34,000  Level FlightAware ADS-B
Sun 07:33:58 AM 60.4166 24.7473 300° West 442 509 34,000  Level FlightAware ADS-B
Sun 07:34:28 AM 60.4476 24.6396 300° West 442 509 34,000  Level FlightAware ADS-B
Sun 07:34:58 AM 60.4771 24.5370 300° West 441 507 34,000  Level FlightAware ADS-B
Sun 07:35:47 AM 60.5243 24.3721 300° West 439 505 34,000  Level FlightAware ADS-B
Sun 07:36:18 AM 60.5592 24.2491 300° West 439 505 34,000  Level FlightAware ADS-B
Sun 07:36:49 AM 60.5888 24.1444 300° West 438 504 34,000  Level FlightAware ADS-B
Sun 07:37:28 AM 60.6292 24.0011 300° West 436 502 34,000  Level FlightAware ADS-B
Sun 07:37:58 AM 60.6594 23.8931 300° West 437 503 34,000  Level FlightAware ADS-B
Sun 07:38:39 AM 60.6981 23.7537 300° West 437 503 34,000  Level FlightAware ADS-B
Sun 07:39:09 AM 60.7293 23.6410 299° West 436 502 34,000  Level FlightAware ADS-B
Sun 07:39:48 AM 60.7612 23.5249 299° West 436 502 34,000  Level FlightAware ADS-B
Sun 07:40:19 AM 60.7938 23.4057 299° West 437 503 34,000  Level FlightAware ADS-B
Sun 07:40:54 AM 60.8325 23.2636 299° West 437 503 34,000  Level FlightAware ADS-B
Sun 07:41:28 AM 60.8590 23.1657 299° West 438 504 34,000  Level FlightAware ADS-B
Sun 07:42:29 AM 60.9231 22.9272 299° West 440 506 34,000  Level FlightAware ADS-B
Sun 07:43:17 AM 60.9722 22.7427 298° West 439 505 34,000  Level FlightAware ADS-B
Sun 07:44:56 AM 61.0628 22.3982 298° West 439 505 34,000  Level FlightAware ADS-B
Sun 07:45:28 AM 61.0944 22.2764 298° West 439 505 34,000  Level FlightAware ADS-B
Sun 07:46:09 AM 61.1330 22.1276 298° West 440 506 34,000  Level FlightAware ADS-B
Sun 07:46:42 AM 61.1683 21.9903 298° West 439 505 34,000  Level FlightAware ADS-B
Sun 07:47:23 AM 61.2051 21.8459 298° West 438 504 34,000  Level FlightAware ADS-B
Sun 07:48:29 AM 61.2668 21.6015 298° West 436 502 34,000  Level FlightAware ADS-B
Sun 07:49:09 AM 61.3023 21.4604 298° West 436 502 34,000 10 Level FlightAware ADS-B
Sun 07:51:00 AM 61.3911 21.0220 293° West  Level Estimated
Sun 07:52:00 AM 61.4385 20.7841 293° West  Level Estimated
Sun 07:53:00 AM 61.4855 20.5454 293° West  Level Estimated
Sun 07:54:00 AM 61.5321 20.3060 292° West  Level Estimated
Sun 07:55:00 AM 61.5782 20.0658 292° West  Level Estimated
Sun 07:56:00 AM 61.6240 19.8250 292° West  Level Estimated
Sun 07:57:00 AM 61.6693 19.5835 292° West  Level Estimated
Sun 07:58:00 AM 61.7141 19.3412 291° West  Level Estimated
Sun 07:59:00 AM 61.7586 19.0982 291° West  Level Estimated
Sun 08:00:00 AM 61.8026 18.8546 291° West  Level Estimated
Sun 08:01:00 AM 61.8462 18.6102 291° West  Level Estimated
Sun 08:02:00 AM 61.8894 18.3652 291° West  Level Estimated
Sun 08:03:00 AM 61.9321 18.1194 290° West  Level Estimated
Sun 08:04:00 AM 61.9743 17.8730 290° West  Level Estimated
Sun 08:05:00 AM 62.0162 17.6259 290° West  Level Estimated
Sun 08:06:00 AM 62.0576 17.3782 290° West  Level Estimated
Sun 08:07:00 AM 62.0985 17.1297 290° West  Level Estimated
Sun 08:08:00 AM 62.1390 16.8806 289° West  Level Estimated
Sun 08:09:00 AM 62.1791 16.6308 289° West  Level Estimated
Sun 08:10:00 AM 62.2187 16.3804 289° West  Level Estimated
Sun 08:11:00 AM 62.2578 16.1293 289° West  Level Estimated
Sun 08:12:00 AM 62.2965 15.8776 288° West  Level Estimated
Sun 08:13:00 AM 62.3348 15.6252 288° West  Level Estimated
Sun 08:14:00 AM 62.3725 15.3721 288° West  Level Estimated
Sun 08:15:00 AM 62.4099 15.1185 288° West  Level Estimated
Sun 08:16:00 AM 62.4467 14.8642 288° West  Level Estimated
Sun 08:17:00 AM 62.4831 14.6093 287° West  Level Estimated
Sun 08:18:00 AM 62.5190 14.3537 287° West  Level Estimated
Sun 08:19:00 AM 62.5545 14.0976 287° West  Level Estimated
Sun 08:20:00 AM 62.5895 13.8408 287° West  Level Estimated
Sun 08:21:00 AM 62.6240 13.5835 286° West  Level Estimated
Sun 08:22:00 AM 62.6581 13.3256 286° West  Level Estimated
Sun 08:23:00 AM 62.6916 13.0670 286° West  Level Estimated
Sun 08:24:00 AM 62.7247 12.8079 286° West  Level Estimated
Sun 08:25:00 AM 62.7573 12.5482 285° West  Level Estimated
Sun 08:26:00 AM 62.7895 12.2879 285° West  Level Estimated
Sun 08:27:00 AM 62.8211 12.0271 285° West  Level Estimated
Sun 08:28:00 AM 62.8523 11.7657 285° West  Level Estimated
Sun 08:29:00 AM 62.8830 11.5038 285° West  Level Estimated
Sun 08:30:00 AM 62.9132 11.2413 284° West  Level Estimated
Sun 08:31:00 AM 62.9429 10.9782 284° West  Level Estimated
Sun 08:32:00 AM 62.9721 10.7147 284° West  Level Estimated
Sun 08:33:00 AM 63.0009 10.4506 284° West  Level Estimated
Sun 08:34:00 AM 63.0291 10.1860 283° West  Level Estimated
Sun 08:35:00 AM 63.0568 9.9209 283° West  Level Estimated
Sun 08:36:00 AM 63.0841 9.6553 283° West  Level Estimated
Sun 08:37:00 AM 63.1108 9.3892 283° West  Level Estimated
Sun 08:38:00 AM 63.1371 9.1227 282° West  Level Estimated
Sun 08:39:00 AM 63.1628 8.8556 282° West  Level Estimated
Sun 08:40:00 AM 63.1881 8.5881 282° West  Level Estimated
Sun 08:41:00 AM 63.2128 8.3201 282° West  Level Estimated
Sun 08:42:00 AM 63.2370 8.0516 281° West  Level Estimated
Sun 08:43:00 AM 63.2608 7.7828 281° West  Level Estimated
Sun 08:44:00 AM 63.2840 7.5134 281° West  Level Estimated
Sun 08:45:00 AM 63.3067 7.2437 281° West  Level Estimated
Sun 08:46:00 AM 63.3289 6.9735 280° West  Level Estimated
Sun 08:47:00 AM 63.3506 6.7029 280° West  Level Estimated
Sun 08:48:00 AM 63.3718 6.4319 280° West  Level Estimated
Sun 08:49:00 AM 63.3924 6.1605 280° West  Level Estimated
Sun 08:50:00 AM 63.4126 5.8887 280° West  Level Estimated
Sun 08:51:00 AM 63.4322 5.6166 279° West  Level Estimated
Sun 08:52:00 AM 63.4513 5.3441 279° West  Level Estimated
Sun 08:53:00 AM 63.4699 5.0712 279° West  Level Estimated
Sun 08:54:00 AM 63.4880 4.7979 279° West  Level Estimated
Sun 08:55:00 AM 63.5055 4.5244 278° West  Level Estimated
Sun 08:56:00 AM 63.5225 4.2505 278° West  Level Estimated
Sun 08:57:00 AM 63.5391 3.9762 278° West  Level Estimated
Sun 08:58:00 AM 63.5550 3.7017 278° West  Level Estimated
Sun 08:59:00 AM 63.5705 3.4269 277° West  Level Estimated
Sun 09:00:00 AM 63.5854 3.1517 277° West  Level Estimated
Sun 09:01:00 AM 63.5998 2.8763 277° West  Level Estimated
Sun 09:02:00 AM 63.6137 2.6006 277° West  Level Estimated
Sun 09:03:00 AM 63.6270 2.3247 276° West  Level Estimated
Sun 09:04:00 AM 63.6399 2.0485 276° West  Level Estimated
Sun 09:05:00 AM 63.6522 1.7720 276° West  Level Estimated
Sun 09:06:00 AM 63.6639 1.4953 276° West  Level Estimated
Sun 09:07:00 AM 63.6751 1.2184 275° West  Level Estimated
Sun 09:08:00 AM 63.6858 0.9413 275° West  Level Estimated
Sun 09:09:00 AM 63.6960 0.6640 275° West  Level Estimated
Sun 09:10:00 AM 63.7056 0.3864 275° West  Level Estimated
Sun 09:11:00 AM 63.7147 0.1087 274° West  Level Estimated
Sun 09:12:00 AM 63.7233 -0.1692 274° West  Level Estimated
Sun 09:13:00 AM 63.7313 -0.4472 274° West  Level Estimated
Sun 09:14:00 AM 63.7388 -0.7254 274° West  Level Estimated
Sun 09:15:00 AM 63.7457 -1.0037 273° West  Level Estimated
Sun 09:16:00 AM 63.7521 -1.2822 273° West  Level Estimated
Sun 09:17:00 AM 63.7580 -1.5608 273° West  Level Estimated
Sun 09:18:00 AM 63.7634 -1.8395 273° West  Level Estimated
Sun 09:19:00 AM 63.7682 -2.1183 272° West  Level Estimated
Sun 09:20:00 AM 63.7724 -2.3972 272° West  Level Estimated
Sun 09:21:00 AM 63.7761 -2.6762 272° West  Level Estimated
Sun 09:22:00 AM 63.7793 -2.9552 272° West  Level Estimated
Sun 09:23:00 AM 63.7820 -3.2343 271° West  Level Estimated
Sun 09:24:00 AM 63.7841 -3.5134 271° West  Level Estimated
Sun 09:25:00 AM 63.7856 -3.7926 271° West  Level Estimated
Sun 09:26:00 AM 63.7867 -4.0718 271° West  Level Estimated
Sun 09:27:00 AM 63.7872 -4.3510 270° West  Level Estimated
Sun 09:28:00 AM 63.7871 -4.6303 270° West  Level Estimated
Sun 09:29:00 AM 63.7865 -4.9095 270° West  Level Estimated
Sun 09:30:00 AM 63.7854 -5.1887 270° West  Level Estimated
Sun 09:31:00 AM 63.7837 -5.4679 269° West  Level Estimated
Sun 09:32:00 AM 63.7815 -5.7470 269° West  Level Estimated
Sun 09:33:00 AM 63.7788 -6.0261 269° West  Level Estimated
Sun 09:34:00 AM 63.7755 -6.3051 269° West  Level Estimated
Sun 09:35:00 AM 63.7717 -6.5841 268° West  Level Estimated
Sun 09:36:00 AM 63.7673 -6.8630 268° West  Level Estimated
Sun 09:37:00 AM 63.7624 -7.1417 268° West  Level Estimated
Sun 09:38:00 AM 63.7570 -7.4204 268° West  Level Estimated
Sun 09:39:00 AM 63.7510 -7.6990 267° West  Level Estimated
Sun 09:40:00 AM 63.7445 -7.9774 267° West  Level Estimated
Sun 09:41:00 AM 63.7375 -8.2558 267° West  Level Estimated
Sun 09:42:00 AM 63.7299 -8.5339 267° West  Level Estimated
Sun 09:43:00 AM 63.7218 -8.8119 266° West  Level Estimated
Sun 09:44:00 AM 63.7131 -9.0898 266° West  Level Estimated
Sun 09:45:00 AM 63.7039 -9.3675 266° West  Level Estimated
Sun 09:46:00 AM 63.6942 -9.6450 266° West  Level Estimated
Sun 09:47:00 AM 63.6839 -9.9223 265° West  Level Estimated
Sun 09:48:00 AM 63.6732 -10.1994 265° West  Level Estimated
Sun 09:49:00 AM 63.6618 -10.4762 265° West  Level Estimated
Sun 09:50:00 AM 63.6500 -10.7529 265° West  Level Estimated
Sun 09:51:00 AM 63.6376 -11.0293 264° West  Level Estimated
Sun 09:52:00 AM 63.6247 -11.3054 264° West  Level Estimated
Sun 09:53:00 AM 63.6113 -11.5814 264° West  Level Estimated
Sun 09:54:00 AM 63.5973 -11.8570 264° West  Level Estimated
Sun 09:55:00 AM 63.5828 -12.1324 263° West  Level Estimated
Sun 09:56:00 AM 63.5677 -12.4074 263° West  Level Estimated
Sun 09:57:00 AM 63.5522 -12.6822 263° West  Level Estimated
Sun 09:58:00 AM 63.5361 -12.9567 263° West  Level Estimated
Sun 09:59:00 AM 63.5195 -13.2309 262° West  Level Estimated
Sun 10:00:00 AM 63.5024 -13.5047 262° West  Level Estimated
Sun 10:01:00 AM 63.4847 -13.7782 262° West  Level Estimated
Sun 10:02:00 AM 63.4666 -14.0514 262° West  Level Estimated
Sun 10:03:00 AM 63.4479 -14.3242 261° West  Level Estimated
Sun 10:04:00 AM 63.4287 -14.5967 261° West  Level Estimated
Sun 10:05:00 AM 63.4090 -14.8687 261° West  Level Estimated
Sun 10:06:00 AM 63.3887 -15.1405 261° West  Level Estimated
Sun 10:07:00 AM 63.3680 -15.4118 260° West  Level Estimated
Sun 10:08:00 AM 63.3467 -15.6827 260° West  Level Estimated
Sun 10:09:00 AM 63.3249 -15.9532 260° West  Level Estimated
Sun 10:10:00 AM 63.3026 -16.2233 260° West  Level Estimated
Sun 10:11:00 AM 63.2798 -16.4930 259° West  Level Estimated
Sun 10:12:00 AM 63.2565 -16.7623 259° West  Level Estimated
Sun 10:13:00 AM 63.2327 -17.0311 259° West  Level Estimated
Sun 10:14:00 AM 63.2084 -17.2994 259° West  Level Estimated
Sun 10:15:00 AM 63.1836 -17.5673 259° West  Level Estimated
Sun 10:16:00 AM 63.1582 -17.8348 258° West  Level Estimated
Sun 10:17:00 AM 63.1324 -18.1017 258° West  Level Estimated
Sun 10:18:00 AM 63.1060 -18.3682 258° West  Level Estimated
Sun 10:19:00 AM 63.0792 -18.6343 258° West  Level Estimated
Sun 10:20:00 AM 63.0519 -18.8998 257° West  Level Estimated
Sun 10:21:00 AM 63.0240 -19.1648 257° West  Level Estimated
Sun 10:22:00 AM 62.9957 -19.4293 257° West  Level Estimated
Sun 10:23:00 AM 62.9669 -19.6933 257° West  Level Estimated
Sun 10:24:00 AM 62.9376 -19.9567 256° West  Level Estimated
Sun 10:25:00 AM 62.9078 -20.2196 256° West  Level Estimated
Sun 10:26:00 AM 62.8775 -20.4820 256° West  Level Estimated
Sun 10:27:00 AM 62.8467 -20.7439 256° West  Level Estimated
Sun 10:28:00 AM 62.8155 -21.0051 255° West  Level Estimated
Sun 10:29:00 AM 62.7837 -21.2659 255° West  Level Estimated
Sun 10:30:00 AM 62.7515 -21.5261 255° West  Level Estimated
Sun 10:31:00 AM 62.7188 -21.7856 255° West  Level Estimated
Sun 10:32:00 AM 62.6856 -22.0447 255° West  Level Estimated
Sun 10:33:00 AM 62.6520 -22.3031 254° West  Level Estimated
Sun 10:34:00 AM 62.6178 -22.5609 254° West  Level Estimated
Sun 10:35:00 AM 62.5832 -22.8182 254° West  Level Estimated
Sun 10:36:00 AM 62.5481 -23.0748 254° West  Level Estimated
Sun 10:37:00 AM 62.5126 -23.3309 253° West  Level Estimated
Sun 10:38:00 AM 62.4766 -23.5863 253° West  Level Estimated
Sun 10:39:00 AM 62.4401 -23.8411 253° West  Level Estimated
Sun 10:40:00 AM 62.4032 -24.0952 253° West  Level Estimated
Sun 10:41:00 AM 62.3658 -24.3488 252° West  Level Estimated
Sun 10:42:00 AM 62.3279 -24.6017 252° West  Level Estimated
Sun 10:43:00 AM 62.2896 -24.8540 252° West  Level Estimated
Sun 10:44:00 AM 62.2508 -25.1056 252° West  Level Estimated
Sun 10:45:00 AM 62.2116 -25.3566 252° West  Level Estimated
Sun 10:46:00 AM 62.1719 -25.6069 251° West  Level Estimated
Sun 10:47:00 AM 62.1318 -25.8566 251° West  Level Estimated
Sun 10:48:00 AM 62.0912 -26.1056 251° West  Level Estimated
Sun 10:49:00 AM 62.0502 -26.3539 251° West  Level Estimated
Sun 10:50:00 AM 62.0087 -26.6015 250° West  Level Estimated
Sun 10:51:00 AM 61.9668 -26.8485 250° West  Level Estimated
Sun 10:52:00 AM 61.9244 -27.0948 250° West  Level Estimated
Sun 10:53:00 AM 61.8816 -27.3404 250° West  Level Estimated
Sun 10:54:00 AM 61.8384 -27.5853 250° West  Level Estimated
Sun 10:55:00 AM 61.7947 -27.8296 249° West  Level Estimated
Sun 10:56:00 AM 61.7506 -28.0731 249° West  Level Estimated
Sun 10:57:00 AM 61.7061 -28.3159 249° West  Level Estimated
Sun 10:58:00 AM 61.6611 -28.5581 249° West  Level Estimated
Sun 10:59:00 AM 61.6158 -28.7995 249° West  Level Estimated
Sun 11:00:00 AM 61.5700 -29.0402 248° West  Level Estimated
Sun 11:01:00 AM 61.5237 -29.2802 248° West  Level Estimated
Sun 11:02:00 AM 61.4771 -29.5195 248° West  Level Estimated
Sun 11:03:00 AM 61.4300 -29.7580 248° West  Level Estimated
Sun 11:04:00 AM 61.3825 -29.9959 247° West  Level Estimated
Sun 11:05:00 AM 61.3346 -30.2330 247° West  Level Estimated
Sun 11:06:00 AM 61.2863 -30.4694 247° West  Level Estimated
Sun 11:07:00 AM 61.2376 -30.7050 247° West  Level Estimated
Sun 11:08:00 AM 61.1885 -30.9400 247° West  Level Estimated
Sun 11:09:00 AM 61.1390 -31.1742 246° West  Level Estimated
Sun 11:10:00 AM 61.0890 -31.4076 246° West  Level Estimated
Sun 11:11:00 AM 61.0387 -31.6403 246° West  Level Estimated
Sun 11:12:00 AM 60.9879 -31.8723 246° West  Level Estimated
Sun 11:13:00 AM 60.9368 -32.1035 246° West  Level Estimated
Sun 11:14:00 AM 60.8853 -32.3340 245° Southwest  Level Estimated
Sun 11:15:00 AM 60.8334 -32.5638 245° Southwest  Level Estimated
Sun 11:16:00 AM 60.7811 -32.7928 245° Southwest  Level Estimated
Sun 11:17:00 AM 60.7284 -33.0210 245° Southwest  Level Estimated
Sun 11:18:00 AM 60.6753 -33.2485 245° Southwest  Level Estimated
Sun 11:19:00 AM 60.6218 -33.4753 244° Southwest  Level Estimated
Sun 11:20:00 AM 60.5680 -33.7012 244° Southwest  Level Estimated
Sun 11:21:00 AM 60.5137 -33.9265 244° Southwest  Level Estimated
Sun 11:22:00 AM 60.4591 -34.1510 244° Southwest  Level Estimated
Sun 11:23:00 AM 60.4041 -34.3747 244° Southwest  Level Estimated
Sun 11:24:00 AM 60.3488 -34.5977 243° Southwest  Level Estimated
Sun 11:25:00 AM 60.2930 -34.8199 243° Southwest  Level Estimated
Sun 11:26:00 AM 60.2369 -35.0413 243° Southwest  Level Estimated
Sun 11:27:00 AM 60.1805 -35.2620 243° Southwest  Level Estimated
Sun 11:28:00 AM 60.1236 -35.4819 243° Southwest  Level Estimated
Sun 11:29:00 AM 60.0664 -35.7011 242° Southwest  Level Estimated
Sun 11:30:00 AM 60.0089 -35.9195 242° Southwest  Level Estimated
Sun 11:31:00 AM 59.9509 -36.1372 242° Southwest  Level Estimated
Sun 11:32:00 AM 59.8927 -36.3541 242° Southwest  Level Estimated
Sun 11:33:00 AM 59.8340 -36.5702 242° Southwest  Level Estimated
Sun 11:34:00 AM 59.7751 -36.7855 242° Southwest  Level Estimated
Sun 11:35:00 AM 59.7157 -37.0001 241° Southwest  Level Estimated
Sun 11:36:00 AM 59.6560 -37.2140 241° Southwest  Level Estimated
Sun 11:37:00 AM 59.5960 -37.4271 241° Southwest  Level Estimated
Sun 11:38:00 AM 59.5356 -37.6394 241° Southwest  Level Estimated
Sun 11:39:00 AM 59.4749 -37.8509 241° Southwest  Level Estimated
Sun 11:40:00 AM 59.4138 -38.0617 240° Southwest  Level Estimated
Sun 11:41:00 AM 59.3525 -38.2718 240° Southwest  Level Estimated
Sun 11:42:00 AM 59.2907 -38.4810 240° Southwest  Level Estimated
Sun 11:43:00 AM 59.2287 -38.6895 240° Southwest  Level Estimated
Sun 11:44:00 AM 59.1663 -38.8973 240° Southwest  Level Estimated
Sun 11:45:00 AM 59.1035 -39.1043 240° Southwest  Level Estimated
Sun 11:46:00 AM 59.0405 -39.3105 239° Southwest  Level Estimated
Sun 11:47:00 AM 58.9771 -39.5160 239° Southwest  Level Estimated
Sun 11:48:00 AM 58.9134 -39.7207 239° Southwest  Level Estimated
Sun 11:49:00 AM 58.8493 -39.9247 239° Southwest  Level Estimated
Sun 11:50:00 AM 58.7850 -40.1279 239° Southwest  Level Estimated
Sun 11:51:00 AM 58.7203 -40.3304 238° Southwest  Level Estimated
Sun 11:52:00 AM 58.6553 -40.5321 238° Southwest  Level Estimated
Sun 11:53:00 AM 58.5900 -40.7330 238° Southwest  Level Estimated
Sun 11:54:00 AM 58.5244 -40.9332 238° Southwest  Level Estimated
Sun 11:55:00 AM 58.4585 -41.1327 238° Southwest  Level Estimated
Sun 11:56:00 AM 58.3923 -41.3314 238° Southwest  Level Estimated
Sun 11:57:00 AM 58.3257 -41.5293 237° Southwest  Level Estimated
Sun 11:58:00 AM 58.2589 -41.7266 237° Southwest  Level Estimated
Sun 11:59:00 AM 58.1917 -41.9230 237° Southwest  Level Estimated
Sun 12:00:00 PM 58.1243 -42.1188 237° Southwest  Level Estimated
Sun 12:01:00 PM 58.0565 -42.3137 237° Southwest  Level Estimated
Sun 12:02:00 PM 57.9885 -42.5080 237° Southwest  Level Estimated
Sun 12:03:00 PM 57.9202 -42.7015 236° Southwest  Level Estimated
Sun 12:04:00 PM 57.8516 -42.8943 236° Southwest  Level Estimated
Sun 12:05:00 PM 57.7826 -43.0863 236° Southwest  Level Estimated
Sun 12:06:00 PM 57.7134 -43.2776 236° Southwest  Level Estimated
Sun 12:07:00 PM 57.6439 -43.4682 236° Southwest  Level Estimated
Sun 12:08:00 PM 57.5741 -43.6580 236° Southwest  Level Estimated
Sun 12:09:00 PM 57.5041 -43.8471 235° Southwest  Level Estimated
Sun 12:10:00 PM 57.4337 -44.0355 235° Southwest  Level Estimated
Sun 12:11:00 PM 57.3631 -44.2232 235° Southwest  Level Estimated
Sun 12:12:00 PM 57.2922 -44.4101 235° Southwest  Level Estimated
Sun 12:13:00 PM 57.2210 -44.5963 235° Southwest  Level Estimated
Sun 12:14:00 PM 57.1496 -44.7818 235° Southwest  Level Estimated
Sun 12:15:00 PM 57.0778 -44.9666 235° Southwest  Level Estimated
Sun 12:16:00 PM 57.0058 -45.1507 234° Southwest  Level Estimated
Sun 12:17:00 PM 56.9336 -45.3340 234° Southwest  Level Estimated
Sun 12:18:00 PM 56.8610 -45.5167 234° Southwest  Level Estimated
Sun 12:19:00 PM 56.7882 -45.6986 234° Southwest  Level Estimated
Sun 12:20:00 PM 56.7152 -45.8799 234° Southwest  Level Estimated
Sun 12:21:00 PM 56.6418 -46.0604 234° Southwest  Level Estimated
Sun 12:22:00 PM 56.5682 -46.2402 233° Southwest  Level Estimated
Sun 12:23:00 PM 56.4944 -46.4193 233° Southwest  Level Estimated
Sun 12:24:00 PM 56.4203 -46.5978 233° Southwest  Level Estimated
Sun 12:25:00 PM 56.3459 -46.7755 233° Southwest  Level Estimated
Sun 12:26:00 PM 56.2713 -46.9525 233° Southwest  Level Estimated
Sun 12:27:00 PM 56.1965 -47.1289 233° Southwest  Level Estimated
Sun 12:28:00 PM 56.1214 -47.3046 233° Southwest  Level Estimated
Sun 12:29:00 PM 56.0460 -47.4795 232° Southwest  Level Estimated
Sun 12:30:00 PM 55.9704 -47.6538 232° Southwest  Level Estimated
Sun 12:31:00 PM 55.8945 -47.8275 232° Southwest  Level Estimated
Sun 12:32:00 PM 55.8184 -48.0004 232° Southwest  Level Estimated
Sun 12:33:00 PM 55.7421 -48.1726 232° Southwest  Level Estimated
Sun 12:34:00 PM 55.6655 -48.3442 232° Southwest  Level Estimated
Sun 12:35:00 PM 55.5887 -48.5151 232° Southwest  Level Estimated
Sun 12:36:00 PM 55.5117 -48.6854 231° Southwest  Level Estimated
Sun 12:37:00 PM 55.4344 -48.8550 231° Southwest  Level Estimated
Sun 12:38:00 PM 55.3568 -49.0239 231° Southwest  Level Estimated
Sun 12:39:00 PM 55.2791 -49.1921 231° Southwest  Level Estimated
Sun 12:40:00 PM 55.2011 -49.3597 231° Southwest  Level Estimated
Sun 12:41:00 PM 55.1229 -49.5267 231° Southwest  Level Estimated
Sun 12:42:00 PM 55.0445 -49.6930 231° Southwest  Level Estimated
Sun 12:43:00 PM 54.9658 -49.8586 230° Southwest  Level Estimated
Sun 12:44:00 PM 54.8873 -50.0228 230° Southwest  Level Estimated
Sun 12:45:00 PM 54.8086 -50.1863 230° Southwest  Level Estimated
Sun 12:46:00 PM 54.7296 -50.3494 230° Southwest  Level Estimated
Sun 12:46:50 PM 58.8833 -56.1500 229° Southwest 440 506 37,000  Level Gander Center
Sun 12:47:00 PM 54.6503 -50.5117 230° Southwest  Level Estimated
Sun 12:47:50 PM 58.8333 -56.3500 244° Southwest 440 506 37,000  Level Gander Center
Sun 12:48:00 PM 54.5709 -50.6735 230° Southwest  Level Estimated
Sun 12:48:50 PM 58.8000 -56.5833 255° West 430 495 37,000  Level Gander Center
Sun 12:49:00 PM 54.4913 -50.8346 230° Southwest  Level Estimated
Sun 12:49:50 PM 58.7500 -56.7833 244° Southwest 430 495 37,000  Level Gander Center
Sun 12:50:00 PM 54.4114 -50.9951 230° Southwest  Level Estimated
Sun 12:50:50 PM 58.7000 -56.9833 244° Southwest 430 495 37,000  Level Gander Center
Sun 12:51:00 PM 54.3313 -51.1550 229° Southwest  Level Estimated
Sun 12:51:50 PM 58.6500 -57.2167 248° West 420 483 37,000  Level Gander Center
Sun 12:52:00 PM 54.2510 -51.3142 229° Southwest  Level Estimated
Sun 12:52:50 PM 58.6167 -57.4167 252° West 420 483 37,700  Level Gander Center
Sun 12:53:50 PM 58.5167 -57.5500 215° Southwest 420 483 38,000 150 Climbing Gander Center
Sun 12:54:50 PM 58.4167 -57.6833 215° Southwest 430 495 38,000  Level Gander Center
Sun 12:55:50 PM 58.3167 -57.8167 215° Southwest 440 506 38,000  Level Gander Center
Sun 12:56:36 PM 58.2500 -57.9167 218° Southwest 440 506 38,000  Level Gander Center
Sun 12:57:36 PM 58.1500 -58.0667 218° Southwest 430 495 38,000  Level Gander Center
Sun 12:58:36 PM 58.0333 -58.2000 211° Southwest 440 506 38,000  Level Gander Center
Sun 12:59:36 PM 57.9333 -58.3000 208° Southwest 440 506 38,000  Level Gander Center
Sun 01:00:50 PM 57.8167 -58.4667 217° Southwest 430 495 38,000  Level Gander Center
Sun 01:01:50 PM 57.7167 -58.5667 208° Southwest 430 495 38,000  Level Gander Center
Sun 01:02:50 PM 57.6167 -58.7000 216° Southwest 440 506 38,000  Level Gander Center
Sun 01:03:50 PM 57.5000 -58.8000 205° Southwest 440 506 38,000  Level Gander Center
Sun 01:04:50 PM 57.4000 -58.9333 216° Southwest 430 495 38,000  Level Gander Center
Sun 01:05:50 PM 57.3000 -59.0333 208° Southwest 430 495 38,000  Level Gander Center
Sun 01:06:50 PM 57.2000 -59.1500 212° Southwest 430 495 38,000  Level Gander Center
Sun 01:07:36 PM 57.1167 -59.2167 203° Southwest 410 472 38,000  Level Gander Center
Sun 01:08:36 PM 57.0167 -59.3167 209° Southwest 420 483 38,000  Level Gander Center
Sun 01:09:36 PM 56.9000 -59.4500 212° Southwest 420 483 38,000  Level Gander Center
Sun 01:10:36 PM 56.8000 -59.5500 209° Southwest 430 495 38,000  Level Gander Center
Sun 01:11:50 PM 56.6833 -59.7000 215° Southwest 430 495 38,000  Level Gander Center
Sun 01:12:50 PM 56.5833 -59.8000 209° Southwest 430 495 38,000  Level Gander Center
Sun 01:13:50 PM 56.4833 -59.9000 209° Southwest 430 495 38,000  Level Gander Center
Sun 01:14:50 PM 56.3833 -60.0167 213° Southwest 430 495 38,000  Level Gander Center
Sun 01:15:50 PM 56.2833 -60.1167 209° Southwest 430 495 38,000  Level Gander Center
Sun 01:16:36 PM 56.1833 -60.2000 205° Southwest 430 495 38,000  Level Gander Center
Sun 01:17:50 PM 56.0667 -60.3333 213° Southwest 430 495 38,000  Level Gander Center
Sun 01:18:50 PM 55.9500 -60.4500 209° Southwest 430 495 38,000  Level Gander Center
Sun 01:19:50 PM 55.8500 -60.5333 205° Southwest 430 495 38,000  Level Gander Center
Sun 01:20:50 PM 55.7500 -60.6333 209° Southwest 430 495 38,000  Level Gander Center
Sun 01:21:50 PM 55.6500 -60.7500 213° Southwest 430 495 38,000  Level Gander Center
Sun 01:22:50 PM 55.5333 -60.8333 202° Southwest 430 495 38,000  Level Gander Center
Sun 01:23:50 PM 55.4333 -60.9500 214° Southwest 430 495 38,000  Level Gander Center
Sun 01:24:50 PM 55.3333 -61.0500 210° Southwest 430 495 38,000  Level Gander Center
Sun 01:25:50 PM 55.2167 -61.1667 210° Southwest 430 495 38,000  Level Gander Center
Sun 01:26:50 PM 55.1167 -61.2500 205° Southwest 430 495 38,000  Level Gander Center
Sun 01:27:50 PM 55.0167 -61.3333 206° Southwest 430 495 38,000  Level Gander Center
Sun 01:28:50 PM 54.9167 -61.4500 214° Southwest 430 495 38,000  Level Gander Center
Sun 01:29:50 PM 54.8000 -61.5500 206° Southwest 430 495 38,000  Level Gander Center
Sun 01:30:36 PM 54.7167 -61.6333 210° Southwest 430 495 38,000  Level Gander Center
Sun 01:31:36 PM 54.6167 -61.7167 206° Southwest 430 495 38,000  Level Gander Center
Sun 01:32:50 PM 54.4833 -61.8500 210° Southwest 430 495 38,000  Level Gander Center
Sun 01:33:50 PM 54.3833 -61.9500 210° Southwest 430 495 38,000  Level Gander Center
Sun 01:34:50 PM 54.2667 -62.0333 203° Southwest 430 495 38,000  Level Gander Center
Sun 01:35:50 PM 54.1667 -62.1333 210° Southwest 430 495 38,000  Level Gander Center
Sun 01:36:50 PM 54.0667 -62.2167 206° Southwest 430 495 38,000  Level Gander Center
Sun 01:37:50 PM 53.9667 -62.3333 214° Southwest 430 495 38,000  Level Gander Center
Sun 01:38:50 PM 53.8500 -62.4167 203° Southwest 430 495 38,000  Level Gander Center
Sun 01:39:50 PM 53.7333 -62.5000 203° Southwest 430 495 38,000  Level Gander Center
Sun 01:40:50 PM 53.6167 -62.6000 207° Southwest 430 495 38,000  Level Gander Center
Sun 01:41:50 PM 53.5167 -62.6833 206° Southwest 430 495 38,000  Level Gander Center
Sun 01:42:50 PM 53.4167 -62.8000 215° Southwest 430 495 38,000  Level Gander Center
Sun 01:43:50 PM 53.3000 -62.8833 203° Southwest 430 495 38,000  Level Gander Center
Sun 01:44:50 PM 53.2000 -62.9833 211° Southwest 430 495 38,000  Level Gander Center
Sun 01:45:50 PM 53.1000 -63.0667 207° Southwest 430 495 38,000  Level Gander Center
Sun 01:46:50 PM 53.0000 -63.1667 211° Southwest 430 495 38,000  Level Gander Center
Sun 01:47:50 PM 52.8833 -63.2500 203° Southwest 440 506 38,000  Level Gander Center
Sun 01:48:50 PM 52.7833 -63.3500 211° Southwest 440 506 38,000  Level Gander Center
Sun 01:49:50 PM 52.6500 -63.4333 201° Southwest 440 506 38,000  Level Gander Center
Sun 01:50:50 PM 52.5500 -63.5333 211° Southwest 440 506 38,000  Level Gander Center
Sun 01:51:50 PM 52.4333 -63.6167 204° Southwest 440 506 38,000  Level Gander Center
Sun 01:52:50 PM 52.3333 -63.6833 202° Southwest 440 506 38,000  Level Gander Center
Sun 01:53:50 PM 52.2333 -63.8000 216° Southwest 440 506 38,000  Level Gander Center
Sun 01:54:50 PM 52.1167 -63.8667 199° South 440 506 38,000  Level Gander Center
Sun 01:55:50 PM 52.0000 -63.9667 208° Southwest 440 506 38,000  Level Gander Center
Sun 01:56:50 PM 51.9000 -64.0500 207° Southwest 440 506 38,000  Level Gander Center
Sun 01:57:50 PM 51.7667 -64.1500 205° Southwest 440 506 38,000  Level Gander Center
Sun 01:58:50 PM 51.6667 -64.2167 202° Southwest 440 506 38,000  Level Gander Center
Sun 01:59:50 PM 51.5500 -64.3167 208° Southwest 440 506 38,000  Level Gander Center
Sun 02:00:50 PM 51.4500 -64.4000 207° Southwest 440 506 38,000  Level Gander Center
Sun 02:01:50 PM 51.3500 -64.5000 212° Southwest 440 506 38,000  Level Gander Center
Sun 02:02:50 PM 51.2333 -64.5667 200° South 440 506 38,000  Level Gander Center
Sun 02:03:50 PM 51.1167 -64.6667 208° Southwest 440 506 38,000  Level Gander Center
Sun 02:04:50 PM 51.0000 -64.7333 200° South 440 506 38,000  Level Gander Center
Sun 02:05:50 PM 50.9000 -64.8333 212° Southwest 450 518 38,000  Level Gander Center
Sun 02:06:50 PM 50.7833 -64.9000 200° South 450 518 38,000  Level Gander Center
Sun 02:07:50 PM 50.6833 -65.0000 212° Southwest 450 518 38,000  Level Gander Center
Sun 02:08:50 PM 50.5667 -65.0667 200° South 450 518 38,000  Level Gander Center
Sun 02:09:50 PM 50.4333 -65.1667 206° Southwest 450 518 38,000  Level Gander Center
Sun 02:10:50 PM 50.3333 -65.2333 203° Southwest 450 518 38,000  Level Gander Center
Sun 02:11:50 PM 50.2167 -65.3333 209° Southwest 450 518 38,000  Level Gander Center
Sun 02:12:50 PM 50.1167 -65.4333 213° Southwest 450 518 38,000  Level Gander Center
Sun 02:13:50 PM 50.0000 -65.5000 200° South 450 518 38,000  Level Gander Center
Sun 02:14:50 PM 49.8833 -65.5833 205° Southwest 450 518 38,000  Level Gander Center
Sun 02:15:50 PM 49.7667 -65.6500 200° South 450 518 38,000  Level Gander Center
Sun 02:16:50 PM 49.6500 -65.7500 209° Southwest 450 518 38,000  Level Gander Center
Sun 02:17:50 PM 49.5500 -65.8167 203° Southwest 450 518 38,000  Level Gander Center
Sun 02:18:50 PM 49.4167 -65.9167 206° Southwest 450 518 38,000  Level Gander Center
Sun 02:19:50 PM 49.3167 -65.9833 203° Southwest 450 518 38,000  Level Gander Center
Sun 02:20:50 PM 49.2000 -66.0667 205° Southwest 450 518 38,000  Level Gander Center
Sun 02:21:58 PM 49.0833 -66.1667 209° Southwest 450 518 38,000  Level Moncton Center
Sun 02:22:58 PM 48.9500 -66.2333 198° South 450 518 38,000  Level Moncton Center
Sun 02:23:58 PM 48.8333 -66.3333 209° Southwest 440 506 38,000  Level Moncton Center
Sun 02:24:58 PM 48.7333 -66.4000 204° Southwest 440 506 38,000  Level Moncton Center
Sun 02:25:58 PM 48.6167 -66.4667 201° Southwest 450 518 38,000  Level Moncton Center
Sun 02:27:50 PM 48.4000 -66.6167 205° Southwest 450 518 38,000  Level Gander Center
Sun 02:28:50 PM 48.2833 -66.7167 210° Southwest 450 518 38,000  Level Gander Center
Sun 02:29:50 PM 48.1833 -66.7667 198° South 460 529 38,000  Level Gander Center
Sun 02:30:50 PM 48.0667 -66.8667 210° Southwest 460 529 38,000  Level Gander Center
Sun 02:31:50 PM 47.9333 -66.9167 194° South 460 529 38,000  Level Gander Center
Sun 02:32:50 PM 47.8167 -67.0000 206° Southwest 460 529 38,000  Level Gander Center
Sun 02:33:50 PM 47.7167 -67.1000 214° Southwest 460 529 38,000  Level Gander Center
Sun 02:34:50 PM 47.6000 -67.1500 196° South 460 529 38,000  Level Gander Center
Sun 02:35:50 PM 47.4667 -67.2333 203° Southwest 460 529 38,000  Level Gander Center
Sun 02:36:50 PM 47.3500 -67.3333 210° Southwest 460 529 38,000  Level Gander Center
Sun 02:43:09 PM 46.5960 -67.7344 201° Southwest 470 541 38,000  Level FlightAware ADS-B
Sun 02:44:14 PM 46.4563 -67.8106 201° Southwest 468 539 38,000  Level FlightAware ADS-B
Sun 02:44:45 PM 46.3941 -67.8444 201° Southwest 468 539 38,000  Level FlightAware ADS-B
Sun 02:45:15 PM 46.3352 -67.8764 201° Southwest 467 537 38,000  Level FlightAware ADS-B
Sun 02:45:48 PM 46.2681 -67.9126 201° Southwest 466 536 38,000  Level FlightAware ADS-B
Sun 02:46:18 PM 46.2094 -67.9443 201° Southwest 466 536 38,000  Level FlightAware ADS-B
Sun 02:47:01 PM 46.1196 -67.9926 201° Southwest 465 535 38,000  Level FlightAware ADS-B
Sun 02:47:43 PM 46.0451 -68.0327 201° Southwest 465 535 38,000  Level FlightAware ADS-B (YSBK / BWU)
Sun 02:48:04 PM 46.0177 -68.0474 200° South 465 535 38,000  Level FlightAware ADS-B (YSBK / BWU)
Sun 02:48:38 PM 45.9248 -68.0970 201° Southwest 466 536 38,000  Level FlightAware ADS-B
Sun 02:49:11 PM 45.8596 -68.1316 200° South 467 537 38,000  Level FlightAware ADS-B
Sun 02:49:42 PM 45.7962 -68.1653 200° South 468 539 38,000  Level FlightAware ADS-B
Sun 02:50:12 PM 45.7377 -68.1963 200° South 470 541 38,000  Level FlightAware ADS-B
Sun 02:50:42 PM 45.6741 -68.2299 200° South 473 544 38,000  Level FlightAware ADS-B
Sun 02:51:27 PM 45.5801 -68.2794 200° South 477 549 38,000  Level FlightAware ADS-B
Sun 02:51:58 PM 45.5174 -68.3125 200° South 478 550 38,000  Level FlightAware ADS-B
Sun 02:52:41 PM 45.4307 -68.3578 200° South 478 550 38,000  Level FlightAware ADS-B
Sun 02:53:11 PM 45.3669 -68.3923 204° Southwest 478 550 38,000  Level FlightAware ADS-B
Sun 02:53:31 PM 45.3285 -68.4246 215° Southwest 477 549 38,000  Level FlightAware ADS-B
Sun 02:54:02 PM 45.2740 -68.4775 214° Southwest 479 551 38,000  Level FlightAware ADS-B (YSBK / BWU)
Sun 02:54:32 PM 45.2169 -68.5326 214° Southwest 480 552 38,000  Level FlightAware ADS-B (YSBK / BWU)
Sun 02:55:03 PM 45.1601 -68.5872 214° Southwest 482 555 38,000  Level FlightAware ADS-B (YSBK / BWU)
Sun 02:55:36 PM 45.1109 -68.6345 214° Southwest 483 556 38,000  Level FlightAware ADS-B
Sun 02:56:06 PM 45.0444 -68.6982 214° Southwest 482 555 38,000  Level FlightAware ADS-B
Sun 02:56:37 PM 44.9866 -68.7533 214° Southwest 481 554 38,000  Level FlightAware ADS-B
Sun 02:57:07 PM 44.9321 -68.8052 214° Southwest 481 554 38,000  Level FlightAware ADS-B
Sun 02:57:43 PM 44.8660 -68.8679 214° Southwest 481 554 38,000  Level FlightAware ADS-B (YSBK / BWU)
Sun 02:58:13 PM 44.8116 -68.9193 214° Southwest 482 555 38,000  Level FlightAware ADS-B (YSBK / BWU)
Sun 02:58:43 PM 44.7537 -68.9738 214° Southwest 481 554 38,000  Level FlightAware ADS-B (YSBK / BWU)
Sun 02:59:17 PM 44.6923 -69.0315 214° Southwest 480 552 38,000  Level FlightAware ADS-B
Sun 02:59:54 PM 44.6251 -69.0945 214° Southwest 482 555 38,000  Level FlightAware ADS-B (YSBK / BWU)
Sun 03:00:33 PM 44.5520 -69.1627 214° Southwest 483 556 38,000  Level FlightAware ADS-B (YSBK / BWU)
Sun 03:01:05 PM 44.4901 -69.2205 214° Southwest 485 558 38,000  Level FlightAware ADS-B
Sun 03:01:42 PM 44.4311 -69.2753 214° Southwest 487 560 38,000  Level FlightAware ADS-B (YSBK / BWU)
Sun 03:02:12 PM 44.3655 -69.3361 214° Southwest 487 560 38,000  Level FlightAware ADS-B (YSBK / BWU)
Sun 03:02:44 PM 44.3116 -69.3860 214° Southwest 486 559 38,000  Level FlightAware ADS-B
Sun 03:04:26 PM 44.1176 -69.5643 213° Southwest 487 560 38,000  Level FlightAware ADS-B
Sun 03:04:56 PM 44.0572 -69.6195 213° Southwest 485 558 38,000  Level FlightAware ADS-B (KASH)
Sun 03:05:34 PM 43.9895 -69.6812 213° Southwest 484 557 38,000  Level FlightAware ADS-B
Sun 03:06:07 PM 43.9254 -69.7395 213° Southwest 483 556 38,000  Level FlightAware ADS-B (KASH)
Sun 03:06:42 PM 43.8611 -69.7980 213° Southwest 482 555 38,000  Level FlightAware ADS-B (KASH)
Sun 03:07:25 PM 43.7802 -69.8712 213° Southwest 482 555 38,000  Level FlightAware ADS-B (KASH)
Sun 03:07:56 PM 43.7233 -69.9225 213° Southwest 482 555 38,000  Level FlightAware ADS-B (KASH)
Sun 03:08:27 PM 43.7050 -69.9390 213° Southwest 483 556 38,000  Level FlightAware ADS-B (EPKK / KRK)
Sun 03:09:05 PM 43.5953 -70.0377 213° Southwest 483 556 38,000  Level FlightAware ADS-B (KASH)
Sun 03:09:41 PM 43.5263 -70.0995 213° Southwest 483 556 38,000  Level FlightAware ADS-B (KASH)
Sun 03:10:16 PM 43.4632 -70.1557 213° Southwest 483 556 38,000  Level FlightAware ADS-B (EPKK / KRK)
Sun 03:10:46 PM 43.4057 -70.2070 213° Southwest 483 556 38,000  Level FlightAware ADS-B (EPKK / KRK)
Sun 03:11:16 PM 43.3513 -70.2553 213° Southwest 485 558 38,000  Level FlightAware ADS-B (EPKK / KRK)
Sun 03:11:48 PM 43.2942 -70.3058 213° Southwest 486 559 38,000  Level FlightAware ADS-B (EPKK / KRK)
Sun 03:12:20 PM 43.2407 -70.3532 213° Southwest 487 560 38,000  Level FlightAware ADS-B (EPKK / KRK)
Sun 03:12:54 PM 43.1702 -70.4156 213° Southwest 488 562 38,000  Level FlightAware ADS-B (EPKK / KRK)
Sun 03:13:24 PM 43.1112 -70.4674 213° Southwest 487 560 38,000  Level FlightAware ADS-B (EPKK / KRK)
Sun 03:13:55 PM 43.0489 -70.5223 213° Southwest 480 552 38,000  Level FlightAware ADS-B (KASH)
Sun 03:14:25 PM 42.9925 -70.5718 213° Southwest 485 558 38,000  Level FlightAware ADS-B (EPKK / KRK)
Sun 03:14:55 PM 42.9389 -70.6186 213° Southwest 485 558 38,000  Level FlightAware ADS-B (EPKK / KRK)
Sun 03:15:26 PM 42.8770 -70.6726 213° Southwest 484 557 38,000  Level FlightAware ADS-B (EPKK / KRK)
Sun 03:16:06 PM 42.8099 -70.7361 219° Southwest 480 552 38,000  Level FlightAware ADS-B (EPKK / KRK)
Sun 03:16:37 PM 42.7543 -70.7969 219° Southwest 479 551 38,000  Level FlightAware ADS-B (EPKK / KRK)
Sun 03:17:13 PM 42.6887 -70.8684 219° Southwest 478 550 38,000  Level FlightAware ADS-B (SBBR / BSB)
Sun 03:17:58 PM 42.6107 -70.9531 219° Southwest 479 551 38,000  Level FlightAware ADS-B (EPKK / KRK)
Sun 03:18:32 PM 42.5557 -71.0126 219° Southwest 479 551 38,000  Level FlightAware ADS-B (EPKK / KRK)
Sun 03:19:09 PM 42.4899 -71.0835 219° Southwest 479 551 38,000  Level FlightAware ADS-B (SBBR / BSB)
Sun 03:19:28 PM 42.4556 -71.1204 219° Southwest 480 552 38,000  Level FlightAware ADS-B (SBBR / BSB)
Sun 03:19:58 PM 42.4104 -71.1689 219° Southwest 480 552 38,000  Level FlightAware ADS-B (EPKK / KRK)
Sun 03:20:29 PM 42.3492 -71.2346 219° Southwest 474 545 38,000  Level FlightAware ADS-B (KASH)
Sun 03:21:02 PM 42.2925 -71.2952 218° Southwest 480 552 38,000  Level FlightAware ADS-B (EPKK / KRK)
Sun 03:21:33 PM 42.2373 -71.3542 218° Southwest 480 552 38,000  Level FlightAware ADS-B (EPKK / KRK)
Sun 03:22:07 PM 42.1786 -71.4166 218° Southwest 480 552 38,000  Level FlightAware ADS-B (SBBR / BSB)
Sun 03:22:29 PM 42.1408 -71.4568 219° Southwest 473 544 38,000  Level FlightAware ADS-B (KASH)
Sun 03:23:01 PM 42.0886 -71.5122 218° Southwest 479 551 38,000  Level FlightAware ADS-B (SBBR / BSB)
Sun 03:23:32 PM 42.0316 -71.5725 218° Southwest 476 548 38,000  Level FlightAware ADS-B (KOWD)
Sun 03:24:04 PM 41.9777 -71.6294 218° Southwest 472 543 38,000  Level FlightAware ADS-B (SBBR / BSB)
Sun 03:24:43 PM 41.9084 -71.7024 218° Southwest 471 542 38,000  Level FlightAware ADS-B (KASH)
Sun 03:25:14 PM 41.8554 -71.7579 218° Southwest 469 540 38,000  Level FlightAware ADS-B (KSNC)
Sun 03:25:44 PM 41.8063 -71.8094 218° Southwest 469 540 38,000  Level FlightAware ADS-B (KSNC)
Sun 03:26:15 PM 41.7522 -71.8659 218° Southwest 468 539 38,000  Level FlightAware ADS-B (KSNC)
Sun 03:26:50 PM 41.6950 -71.9256 218° Southwest 469 540 38,000  Level FlightAware ADS-B (SBBR / BSB)
Sun 03:27:38 PM 41.6223 -72.0013 218° Southwest 474 545 38,000  Level FlightAware ADS-B (KSNC)
Sun 03:28:12 PM 41.5526 -72.0736 218° Southwest 478 550 38,000  Level FlightAware ADS-B (SBBR / BSB)
Sun 03:28:46 PM 41.4990 -72.1291 218° Southwest 479 551 38,000  Level FlightAware ADS-B (SBBR / BSB)
Sun 03:29:16 PM 41.4441 -72.1858 218° Southwest 481 554 38,000  Level FlightAware ADS-B (SBBR / BSB)
Sun 03:29:46 PM 41.3867 -72.2449 218° Southwest 481 554 38,000  Level FlightAware ADS-B (SBBR / BSB)
Sun 03:30:18 PM 41.3309 -72.3023 218° Southwest 481 554 38,000  Level FlightAware ADS-B (SBBR / BSB)
Sun 03:30:53 PM 41.2715 -72.3633 218° Southwest 483 556 38,000  Level FlightAware ADS-B (KSNC)
Sun 03:31:26 PM 41.2101 -72.4260 218° Southwest 483 556 38,000  Level FlightAware ADS-B (KSNC)
Sun 03:32:13 PM 41.1302 -72.5076 218° Southwest 485 558 38,000  Level FlightAware ADS-B (SBBR / BSB)
Sun 03:32:49 PM 41.0631 -72.5758 218° Southwest 485 558 38,000  Level FlightAware ADS-B (KSNC)
Sun 03:33:19 PM 41.0086 -72.6311 218° Southwest 484 557 38,000  Level FlightAware ADS-B (KSNC)
Sun 03:33:50 PM 40.9594 -72.6810 218° Southwest 483 556 38,000  Level FlightAware ADS-B (SBBR / BSB)
Sun 03:33:56 PM 40.9484 -72.6921 218° Southwest 483 556 38,000  Level FlightAware ADS-B (SBBR / BSB)
Sun 03:34:31 PM 40.8833 -72.7578 218° Southwest 480 552 38,000  Level FlightAware ADS-B (KSNC)
Sun 03:34:42 PM 40.8634 -72.7779 218° Southwest 480 552 38,000  Level FlightAware ADS-B (SBBR / BSB)
Sun 03:35:22 PM 40.7999 -72.8419 217° Southwest 479 551 38,000  Level FlightAware ADS-B (KSNC)
Sun 03:35:59 PM 40.7393 -72.9027 217° Southwest 474 545 38,000  Level FlightAware ADS-B (KSNC)
Sun 03:36:31 PM 40.6731 -72.9690 217° Southwest 472 543 38,000  Level FlightAware ADS-B (KSNC)
Sun 03:37:01 PM 40.6315 -73.0105 217° Southwest 467 537 38,000  Level FlightAware ADS-B (KSNC)
Sun 03:37:33 PM 40.5653 -73.0767 217° Southwest 462 532 38,000  Level FlightAware ADS-B (KSNC)
Sun 03:38:04 PM 40.5261 -73.1158 217° Southwest 462 532 38,000  Level FlightAware ADS-B (KSNC)
Sun 03:38:48 PM 40.4376 -73.2038 217° Southwest 463 533 38,000  Level FlightAware ADS-B (KSNC)
Sun 03:39:25 PM 40.3752 -73.2653 217° Southwest 462 532 38,000  Level FlightAware ADS-B (KSNC)
Sun 03:40:02 PM 40.3117 -73.3281 217° Southwest 461 531 38,000  Level FlightAware ADS-B (KSNC)
Sun 03:40:36 PM 40.2541 -73.3849 217° Southwest 460 529 38,000  Level FlightAware ADS-B (KSNC)
Sun 03:41:14 PM 40.1899 -73.4482 217° Southwest 461 531 38,000  Level FlightAware ADS-B (KSNC)
Sun 03:41:45 PM 40.1374 -73.4998 217° Southwest 461 531 38,000  Level FlightAware ADS-B (KPHL)
Sun 03:42:28 PM 40.0626 -73.5730 217° Southwest 463 533 38,000  Level FlightAware ADS-B (KWWD)
Sun 03:43:00 PM 40.0090 -73.6253 217° Southwest 461 531 38,000  Level FlightAware ADS-B (KSNC)
Sun 03:43:38 PM 39.9433 -73.6893 217° Southwest 460 529 38,000  Level FlightAware ADS-B (KWWD)
Sun 03:44:13 PM 39.8939 -73.7374 217° Southwest 459 528 38,000  Level FlightAware ADS-B (KPHL)
Sun 03:44:44 PM 39.8361 -73.7934 217° Southwest 459 528 38,000  Level FlightAware ADS-B (KWWD)
Sun 03:45:19 PM 39.7723 -73.8552 217° Southwest 459 528 38,000  Level FlightAware ADS-B (KWWD)
Sun 03:45:59 PM 39.7039 -73.9213 217° Southwest 462 532 38,000  Level FlightAware ADS-B (KWWD)
Sun 03:46:30 PM 39.6510 -73.9723 217° Southwest 467 537 38,000  Level FlightAware ADS-B (KPHL)
Sun 03:47:08 PM 39.5842 -74.0363 217° Southwest 448 516 38,000  Level FlightAware ADS-B (KWWD)
Sun 03:47:44 PM 39.5237 -74.0945 217° Southwest 457 526 38,000  Level FlightAware ADS-B (KPHL)
Sun 03:48:19 PM 39.4652 -74.1506 217° Southwest 449 517 38,000  Level FlightAware ADS-B (KWWD)
Sun 03:48:32 PM 39.4590 -74.1565 216° Southwest 453 521 38,000  Level FlightAware ADS-B (KPHL)
Sun 03:49:03 PM 39.3912 -74.2211 217° Southwest 445 512 38,000  Level FlightAware ADS-B (KWWD)
Sun 03:49:37 PM 39.3339 -74.2757 217° Southwest 443 510 38,000  Level FlightAware ADS-B (KWWD)
Sun 03:50:09 PM 39.2801 -74.3269 217° Southwest 443 510 38,000  Level FlightAware ADS-B (KWWD)
Sun 03:50:28 PM 39.2559 -74.3499 216° Southwest 450 518 38,000  Level FlightAware ADS-B (KPHL)
Sun 03:51:01 PM 39.2369 -74.3679 217° Southwest 449 517 38,000  Level FlightAware ADS-B (KPHL)
Sun 03:51:24 PM 39.1843 -74.4179 216° Southwest 447 514 38,000  Level FlightAware ADS-B (KPHL)
Sun 03:52:29 PM 39.0490 -74.5454 216° Southwest 439 505 38,000  Level FlightAware ADS-B (KWWD)
Sun 03:53:26 PM 38.9591 -74.6301 216° Southwest 439 505 38,000  Level FlightAware ADS-B (KWWD)
Sun 03:53:57 PM 38.9061 -74.6797 216° Southwest 441 507 38,000  Level FlightAware ADS-B (KWWD)
Sun 03:54:27 PM 38.8547 -74.7278 216° Southwest 442 509 38,000  Level FlightAware ADS-B (KWWD)
Sun 03:55:08 PM 38.7878 -74.7902 216° Southwest 442 509 38,000  Level FlightAware ADS-B
Sun 03:55:44 PM 38.7485 -74.8269 216° Southwest 441 507 38,000  Level FlightAware ADS-B
Sun 03:56:42 PM 38.6336 -74.9339 216° Southwest 440 506 38,000  Level FlightAware ADS-B (KPHL)
Sun 03:57:15 PM 38.5788 -74.9847 216° Southwest 444 511 38,000  Level FlightAware ADS-B (KPHL)
Sun 03:57:46 PM 38.5254 -75.0341 217° Southwest 440 506 38,000  Level FlightAware ADS-B (KWWD)
Sun 03:58:21 PM 38.4712 -75.0842 217° Southwest 441 507 38,000  Level FlightAware ADS-B (KWWD)
Sun 03:58:52 PM 38.4160 -75.1351 217° Southwest 442 509 38,000  Level FlightAware ADS-B (KWWD)
Sun 03:59:27 PM 38.3571 -75.1892 217° Southwest 439 505 38,000  Level FlightAware ADS-B (KWWD)
Sun 04:00:00 PM 38.3190 -75.2242 216° Southwest 445 512 38,000  Level FlightAware ADS-B (KPHL)
Sun 04:00:41 PM 38.2343 -75.3019 216° Southwest 440 506 38,000  Level FlightAware ADS-B (KWWD)
Sun 04:01:11 PM 38.1849 -75.3471 217° Southwest 440 506 38,000  Level FlightAware ADS-B (KWWD)
Sun 04:01:48 PM 38.1212 -75.4053 216° Southwest 441 507 38,000  Level FlightAware ADS-B (KWWD)
Sun 04:02:21 PM 38.0650 -75.4564 216° Southwest 440 506 38,000  Level FlightAware ADS-B (KWWD)
Sun 04:02:51 PM 38.0127 -75.4964 210° Southwest 447 514 38,000  Level FlightAware ADS-B (KWWD)
Sun 04:03:28 PM 37.9450 -75.5481 212° Southwest 450 518 38,000  Level FlightAware ADS-B (KWWD)
Sun 04:04:00 PM 37.8893 -75.5909 211° Southwest 454 522 38,000  Level FlightAware ADS-B (KWWD)
Sun 04:04:42 PM 37.8124 -75.6490 211° Southwest 455 524 38,000  Level FlightAware ADS-B (KWWD)
Sun 04:05:12 PM 37.7596 -75.6887 211° Southwest 449 517 38,000  Level FlightAware ADS-B (KWWD)
Sun 04:05:51 PM 37.6880 -75.7424 211° Southwest 449 517 38,000  Level FlightAware ADS-B (KWWD)
Sun 04:06:32 PM 37.6141 -75.7978 211° Southwest 454 522 38,000  Level FlightAware ADS-B (KWWD)
Sun 04:07:20 PM 37.5263 -75.8606 206° Southwest 450 518 38,000  Level FlightAware ADS-B (KWWD)
Sun 04:07:51 PM 37.4678 -75.8918 203° Southwest 456 525 38,000  Level FlightAware ADS-B (KWWD)
Sun 04:08:21 PM 37.4066 -75.9255 204° Southwest 455 524 38,000  Level FlightAware ADS-B (KWWD)
Sun 04:08:52 PM 37.3470 -75.9582 204° Southwest 457 526 38,000  Level FlightAware ADS-B (KWWD)
Sun 04:09:28 PM 37.2845 -75.9918 204° Southwest 460 529 38,000  Level FlightAware ADS-B (KWWD)
Sun 04:10:04 PM 37.2024 -76.0357 203° Southwest 470 541 38,000  Level FlightAware ADS-B (KWWD)
Sun 04:10:37 PM 37.1375 -76.0702 203° Southwest 471 542 38,000  Level FlightAware ADS-B (KWWD)
Sun 04:11:09 PM 37.0725 -76.1047 203° Southwest 470 541 38,000  Level FlightAware ADS-B (KWWD)
Sun 04:11:59 PM 36.9736 -76.1572 203° Southwest 459 528 38,000  Level FlightAware ADS-B (KWWD)
Sun 04:12:31 PM 36.9308 -76.1792 203° Southwest 475 547 38,000  Level Washington Center
Sun 04:13:31 PM 36.8094 -76.2353 200° South 475 547 38,000  Level Washington Center
Sun 04:14:29 PM 36.6797 -76.3017 202° Southwest 470 541 38,000  Level Washington Center
Sun 04:15:29 PM 36.5606 -76.3547 200° South 470 541 38,000  Level Washington Center
Sun 04:16:30 PM 36.4411 -76.4106 201° Southwest 470 541 38,000  Level Washington Center
Sun 04:17:30 PM 36.3219 -76.4633 200° South 465 535 38,000  Level Washington Center
Sun 04:18:31 PM 36.2025 -76.5186 200° South 465 535 38,000  Level Washington Center
Sun 04:19:29 PM 36.0811 -76.5739 200° South 465 535 38,000  Level Washington Center
Sun 04:20:30 PM 35.9597 -76.6261 199° South 465 535 38,000  Level Washington Center
Sun 04:21:31 PM 35.8403 -76.6811 200° South 465 535 38,000  Level Washington Center
Sun 04:22:31 PM 35.7208 -76.7383 201° Southwest 465 535 38,000  Level Washington Center
Sun 04:23:31 PM 35.6014 -76.7928 200° South 465 535 38,000  Level Washington Center
Sun 04:24:29 PM 35.4817 -76.8469 200° South 465 535 38,000  Level Washington Center
Sun 04:25:31 PM 35.3644 -76.9011 201° Southwest 465 535 38,000  Level Washington Center
Sun 04:26:31 PM 35.2406 -76.9525 199° South 465 535 38,000  Level Washington Center
Sun 04:27:29 PM 35.1189 -77.0089 201° Southwest 465 535 38,000  Level Washington Center
Sun 04:28:29 PM 35.0142 -77.0553 200° South 465 535 38,000  Level Washington Center
Sun 04:29:29 PM 34.8800 -77.1136 200° South 460 529 38,000  Level Washington Center
Sun 04:31:30 PM 34.6553 -77.2206 201° Southwest 460 529 38,000  Level Washington Center
Sun 04:32:31 PM 34.5336 -77.2711 199° South 460 529 38,000  Level Washington Center
Sun 04:33:31 PM 34.4139 -77.3239 200° South 460 529 38,000  Level Washington Center
Sun 04:34:31 PM 34.2964 -77.3744 200° South 460 529 38,000  Level Washington Center
Sun 04:35:30 PM 34.1767 -77.4244 199° South 460 529 38,000  Level Washington Center
Sun 04:36:11 PM 34.0786 -77.4672 200° South 460 529 38,000  Level Jacksonville Center
Sun 04:38:11 PM 33.8408 -77.5694 200° South 455 524 38,000  Level Jacksonville Center
Sun 04:39:11 PM 33.7261 -77.6189 200° South 455 524 38,000  Level Jacksonville Center
Sun 04:40:11 PM 33.6156 -77.6681 200° South 455 524 38,000  Level Jacksonville Center
Sun 04:41:11 PM 33.4967 -77.7222 201° Southwest 460 529 38,000  Level Jacksonville Center
Sun 04:42:11 PM 33.3778 -77.7714 199° South 460 529 38,000  Level Jacksonville Center
Sun 04:43:11 PM 33.2589 -77.8231 200° South 460 529 38,000  Level Jacksonville Center
Sun 04:44:11 PM 33.1439 -77.8717 199° South 460 529 38,000  Level Jacksonville Center
Sun 04:45:11 PM 33.0247 -77.9206 199° South 460 529 38,000  Level Jacksonville Center
Sun 04:46:11 PM 32.9078 -77.9714 200° South 460 529 38,000  Level Jacksonville Center
Sun 04:47:11 PM 32.7908 -78.0200 199° South 460 529 38,000  Level Jacksonville Center
Sun 04:48:11 PM 32.6736 -78.0681 199° South 455 524 38,000  Level Jacksonville Center
Sun 04:49:11 PM 32.5564 -78.1164 199° South 455 524 38,000  Level Jacksonville Center
Sun 04:50:11 PM 32.4417 -78.1692 201° Southwest 450 518 38,000  Level Jacksonville Center
Sun 04:51:11 PM 32.3222 -78.2144 198° South 450 518 38,000  Level Jacksonville Center
Sun 04:52:11 PM 32.2053 -78.2672 201° Southwest 455 524 38,000  Level Jacksonville Center
Sun 04:53:11 PM 32.0922 -78.3169 200° South 455 524 38,000  Level Jacksonville Center
Sun 04:54:11 PM 31.9769 -78.3644 199° South 449 517 38,000  Level Jacksonville Center
Sun 04:55:11 PM 31.8556 -78.4119 198° South 449 517 38,000  Level Jacksonville Center
Sun 04:56:11 PM 31.7403 -78.4589 199° South 444 511 38,000  Level Jacksonville Center
Sun 04:57:11 PM 31.6231 -78.5086 200° South 444 511 38,000  Level Jacksonville Center
Sun 04:58:11 PM 31.5097 -78.5503 197° South 444 511 38,000  Level Jacksonville Center
Sun 04:59:11 PM 31.3903 -78.5997 199° South 444 511 38,000  Level Jacksonville Center
Sun 05:00:11 PM 31.2750 -78.6439 198° South 444 511 38,000  Level Jacksonville Center
Sun 05:01:11 PM 31.1597 -78.6928 200° South 444 511 38,000  Level Jacksonville Center
Sun 05:02:11 PM 31.0422 -78.7392 199° South 444 511 38,000  Level Jacksonville Center
Sun 05:03:11 PM 30.9164 -78.7883 199° South 446 513 38,000  Level Jacksonville Center
Sun 05:04:11 PM 30.8031 -78.8344 199° South 434 499 38,000  Level Jacksonville Center
Sun 05:05:11 PM 30.6794 -78.8808 198° South 455 524 38,000  Level Jacksonville Center
Sun 05:06:42 PM 30.5214 -78.9453 199° South 437 503 38,000  Level Miami Center
Sun 05:07:42 PM 30.4061 -78.9861 197° South 437 503 38,000  Level Miami Center
Sun 05:08:42 PM 30.2931 -79.0344 200° South 442 509 38,000  Level Miami Center
Sun 05:09:42 PM 30.1692 -79.0800 198° South 452 520 38,000  Level Miami Center
Sun 05:10:42 PM 30.0517 -79.1253 198° South 447 514 38,000  Level Miami Center
Sun 05:11:42 PM 29.9319 -79.1875 204° Southwest 441 507 38,000  Level Miami Center
Sun 05:12:42 PM 29.8144 -79.2303 198° South 441 507 38,000  Level Miami Center
Sun 05:13:42 PM 29.6989 -79.2756 199° South 446 513 38,000  Level Miami Center
Sun 05:15:42 PM 29.4639 -79.3586 194° South 446 513 38,000  Level Miami Center
Sun 05:21:48 PM 28.7448 -79.6275 199° South 448 516 38,000  Level FlightAware ADS-B
Sun 05:22:49 PM 28.6190 -79.6750 198° South 449 517 38,000  Level FlightAware ADS-B
Sun 05:24:29 PM 28.4216 -79.7493 198° South 448 516 38,000  Level FlightAware ADS-B
Sun 05:25:30 PM 28.3028 -79.7939 198° South 450 518 38,000  Level FlightAware ADS-B
Sun 05:26:10 PM 28.2242 -79.8233 198° South 452 520 38,000  Level FlightAware ADS-B
Sun 05:27:06 PM 28.1107 -79.8658 198° South 452 520 38,000  Level FlightAware ADS-B
Sun 05:27:46 PM 28.0756 -79.8789 198° South 453 521 38,000  Level FlightAware ADS-B
Sun 05:28:29 PM 27.9487 -79.9262 198° South 454 522 38,000  Level FlightAware ADS-B
Sun 05:29:09 PM 27.8652 -79.9572 198° South 455 524 38,000  Level FlightAware ADS-B
Sun 05:30:12 PM 27.7415 -80.0032 198° South 454 522 38,000  Level FlightAware ADS-B
Sun 05:30:53 PM 27.6577 -80.0342 198° South 453 521 38,000  Level FlightAware ADS-B
Sun 05:31:34 PM 27.5783 -80.0635 198° South 452 520 38,000  Level FlightAware ADS-B
Sun 05:32:06 PM 27.5147 -80.0870 198° South 452 520 38,000  Level FlightAware ADS-B
Sun 05:32:53 PM 27.4217 -80.1214 198° South 451 519 38,000  Level FlightAware ADS-B
Sun 05:33:34 PM 27.3403 -80.1513 198° South 453 521 38,000  Level FlightAware ADS-B
Sun 05:34:12 PM 27.2636 -80.1796 198° South 455 524 38,000  Level FlightAware ADS-B
Sun 05:34:54 PM 27.1784 -80.2109 198° South 457 526 38,000  Level FlightAware ADS-B
Sun 05:35:38 PM 27.0973 -80.2405 198° South 457 526 38,000  Level FlightAware ADS-B (RJTF)
Sun 05:36:23 PM 27.0149 -80.2707 198° South 457 526 38,000  Level FlightAware ADS-B (RJTF)
Sun 05:36:53 PM 26.9463 -80.2958 198° South 456 525 38,000  Level FlightAware ADS-B (RJTF)
Sun 05:37:38 PM 26.8636 -80.3259 198° South 457 526 38,000  Level FlightAware ADS-B (RJTF)
Sun 05:38:09 PM 26.7906 -80.3525 198° South 457 526 38,000  Level FlightAware ADS-B (RJTF)
Sun 05:38:53 PM 26.7009 -80.3852 198° South 457 526 38,000  Level FlightAware ADS-B (RJTF)
Sun 05:39:24 PM 26.6507 -80.4034 198° South 457 526 38,000  Level FlightAware ADS-B (RJTF)
Sun 05:40:08 PM 26.5498 -80.4400 198° South 456 525 38,000  Level FlightAware ADS-B (RJTF)
Sun 05:40:39 PM 26.4863 -80.4630 198° South 457 526 38,000  Level FlightAware ADS-B (RJTF)
Sun 05:41:23 PM 26.3962 -80.4957 198° South 457 526 38,000  Level FlightAware ADS-B (RJTF)
Sun 05:41:54 PM 26.3562 -80.5101 198° South 459 528 38,000  Level FlightAware ADS-B (RJTF)
Sun 05:42:54 PM 26.2219 -80.5586 198° South 460 529 38,000  Level FlightAware ADS-B (RJTF)
Sun 05:43:38 PM 26.1273 -80.5925 198° South 459 528 38,000  Level FlightAware ADS-B (RJTF)
Sun 05:44:09 PM 26.0765 -80.6107 198° South 458 527 38,000  Level FlightAware ADS-B (RJTF)
Sun 05:44:42 PM 26.0169 -80.6344 198° South 453 521 38,000  Level Miami Center
Sun 05:45:42 PM 25.8967 -80.6792 198° South 453 521 38,000  Level Miami Center
Sun 05:46:42 PM 25.7867 -80.7403 207° Southwest 448 516 38,000 -100 Level Miami Center
Sun 05:47:42 PM 25.6986 -80.8294 222° Southwest 434 499 37,800 -700 Descending Miami Center
Sun 05:48:42 PM 25.5997 -80.9300 223° Southwest 434 499 36,600 -1,050 Descending Miami Center
Sun 05:49:42 PM 25.5094 -81.0236 223° Southwest 439 505 35,700 -950 Descending Miami Center
Sun 05:50:42 PM 25.4214 -81.1103 222° Southwest 439 505 34,700 -1,000 Descending Miami Center
Sun 05:51:42 PM 25.3286 -81.2033 222° Southwest 439 505 33,700 -1,000 Descending Miami Center
Sun 05:52:42 PM 25.2383 -81.2944 222° Southwest 439 505 32,700 -1,000 Descending Miami Center
Sun 05:53:42 PM 25.1500 -81.3831 222° Southwest 439 505 31,700 -1,000 Descending Miami Center
Sun 05:54:42 PM 25.0636 -81.4714 223° Southwest 434 499 30,700 -850 Descending Miami Center
Sun 05:55:42 PM 24.9775 -81.5553 221° Southwest 428 493 30,000 -350 Descending Miami Center
Sun 05:56:42 PM 24.8933 -81.6392 222° Southwest 422 486 30,000 -400 Level Miami Center
Sun 05:57:42 PM 24.8136 -81.7206 223° Southwest 411 473 29,200 -850 Descending Miami Center
Sun 05:58:42 PM 24.7381 -81.7953 222° Southwest 405 466 28,300 -1,000 Descending Miami Center
Sun 05:59:42 PM 24.6431 -81.8875 221° Southwest 405 466 27,200 -1,050 Descending Miami Center
Sun 06:00:42 PM 24.5631 -81.9689 223° Southwest 405 466 26,200 -1,000 Descending Miami Center
Sun 06:01:42 PM 24.4808 -82.0497 222° Southwest 405 466 25,200 -1,000 Descending Miami Center
Sun 06:02:42 PM 24.4008 -82.1286 222° Southwest 405 466 24,200 -1,000 Descending Miami Center
Sun 06:03:42 PM 24.3228 -82.2072 223° Southwest 394 453 23,200 -1,000 Descending Miami Center
Sun 06:04:42 PM 24.2469 -82.2814 222° Southwest 383 441 22,200 -600 Descending Miami Center
Sun 06:05:42 PM 24.1692 -82.3556 221° Southwest 376 433 22,000 -100 Descending Miami Center
Sun 06:06:42 PM 24.1083 -82.4164 222° Southwest 371 427 22,000  Level Miami Center
Sun 06:07:42 PM 24.0158 -82.4897 216° Southwest 376 433 22,000  Level Miami Center
Sun 06:09:00 PM 23.8756 -82.4989 173° South  Level FlightAware Approximate
Sun 06:16:00 PM 23.0269 -82.4000 180° South  Level FlightAware Approximate
Sun 06:17:00 PM 22.9891 -82.4091 180° South  Level Estimated
Sun 06:18:00 PM 22.9891 -82.4091 180° South  Level Estimated
Sun 06:19:00 PM 22.9891 -82.4091 180° South  Level Estimated
Sun 06:20:00 PM 22.9891 -82.4091 180° South  Level Estimated
Sun 06:21:00 PM 22.9891 -82.4091 180° South  Level Estimated
Sun 06:22:00 PM 22.9891 -82.4091 180° South  Level Estimated
Sun 06:23:00 PM 22.9891 -82.4091 180° South  Level Estimated
Sun 06:24:00 PM 22.9891 -82.4091 180° South  Level Estimated
Sun 06:25:00 PM 22.9891 -82.4091 180° South  Level Estimated
Sun 06:26:00 PM 22.9891 -82.4091 180° South  Level Estimated
Sun 06:27:00 PM 22.9891 -82.4091 180° South  Level Estimated
Sun 06:28:00 PM 22.9891 -82.4091 180° South  Level Estimated
Sun 06:29:00 PM 22.9891 -82.4091 180° South  Level Estimated
Sun 06:30:00 PM 22.9891 -82.4091 180° South  Level Estimated
Sun 06:31:00 PM 22.9891 -82.4091 180° South  Level Estimated
Sun 06:32:00 PM 22.9891 -82.4091 180° South  Level Estimated
Sun 06:33:00 PM 22.9891 -82.4091 180° South  Level Estimated
Sun 06:34:00 PM 22.9891 -82.4091 180° South  Level Estimated
Sun 06:35:00 PM 22.9891 -82.4091 180° South  Level Estimated
Sun 06:36:00 PM 22.9891 -82.4091 180° South  Level Estimated
Sun 06:37:00 PM 22.9891 -82.4091 180° South  Level Estimated
Sun 06:38:00 PM 22.9891 -82.4091 180° South  Level Estimated

Login

Don't have an account? Register now (free) for customized features, flight alerts, and more!